Rockville, Rhode Island
Current Conditions -  °F | °C
As of 11:25 AM on Monday 24 Nov 2014 (Local Time) from KWST Reporting Station
Light Rain Light Rain  
Wind Chill: 61°   Ceiling: 400
Heat Index: 61°   Visibility: 2.5mi
Dew Point: 60°   Wind: 14mph
Humidity: 97%   Direction: 210°SSW
Pressure: 29.72"   Gusts: 23mph
Location:  41.52°N, 71.76°W
Report Text: KWST 241625Z AUTO 21012G20KT 2 1/2SM -RA BR OVC004 16/16 A2972 RMK AO2 PK WND 22027/1607 P0003 T01610156
Loading
Personal Weather Stations






























Interactive Weather Map New forecast layout! Learn more

10-Day Weather Forecast

Advertisements
Track Severe Weather on mobile